Observations for Trim Market St
| Time | AQI | Temp °C | Hum % | Pres Pa | CO μg/m³ | H₂S μg/m³ | NO μg/m³ | NO₂ μg/m³ | O₃ μg/m³ | SO₂ μg/m³ | PM1 μg/m³ | PM2.5 μg/m³ | PM10 μg/m³ |
|---|---|---|---|---|---|---|---|---|---|---|---|---|---|
| Saturday 15 August 2026 | |||||||||||||
| 16:24 | 2 | 34.4 | 24 | 66,451 | 0 | 0 | 0.77 | 14.26 | 74.62 | 0 | 0 | 3 | 3.3 |
| 16:23 | 2 | 34.6 | 24 | 66,474 | 0 | 0 | 0.75 | 14.52 | 76.22 | 0 | 0 | 3.01 | 3.31 |
| 16:18 | 2 | 35.3 | 24 | 66,517 | 0 | 0 | 0.61 | 13.3 | 75.08 | 0 | 0 | 3.57 | 3.92 |
| 16:17 | 2 | 35.4 | 24 | 66,515 | 0 | 0 | 0.6 | 13.65 | 84.41 | 0 | 0 | 3.01 | 3.31 |
| 16:16 | 2 | 35.5 | 24 | 66,503 | 0 | 0 | 0.58 | 9.66 | 79.36 | 0 | 0 | 3.01 | 3.31 |
| 16:15 | 2 | 35.4 | 24 | 66,493 | 0 | 0 | 0.58 | 12.94 | 79.42 | 0 | 0 | 3 | 3.3 |
| 16:10 | 2 | 34.8 | 25 | 66,435 | 0 | 0 | 0.68 | 14.4 | 67.34 | 0 | 0 | 2.98 | 3.28 |
| 16:09 | 2 | 34.6 | 25 | 66,412 | 0 | 0 | 0.65 | 13.92 | 79.26 | 0 | 0 | 2.97 | 3.27 |
| 16:05 | 2 | 34.2 | 25 | 66,380 | 0 | 0 | 0.7 | 7.25 | 65.94 | 0 | 0 | 3.51 | 3.86 |
| 16:04 | 2 | 34.1 | 26 | 66,380 | 0 | 0 | 0.7 | 12.31 | 76.08 | 0 | 0 | 3.5 | 3.85 |
| 16:03 | 2 | 33.9 | 26 | 66,351 | 0 | 0 | 0.73 | 13.01 | 59.89 | 0 | 0 | 2.95 | 3.24 |
| 16:01 | 2 | 33.9 | 26 | 66,394 | 0 | 0 | 0.67 | 13.22 | 88.04 | 0 | 0 | 2.94 | 3.24 |
| 15:58 | 2 | 33.9 | 26 | 66,384 | 0.62 | 0 | 0.47 | 6.06 | 0 | 0 | 0 | 2.95 | 3.24 |
| 15:57 | 2 | 34 | 26 | 66,380 | 0.27 | 0 | 0.44 | 24.88 | 26.79 | 0 | 0 | 2.94 | 3.24 |
| 15:56 | 2 | 34.1 | 26 | 66,372 | 0.32 | 0 | 0.45 | 15.95 | 8.61 | 0 | 0 | 2.94 | 3.23 |
| 15:52 | 2 | 33.9 | 27 | 66,335 | 0.47 | 0 | 0.66 | 15.01 | 61.73 | 0 | 0 | 3.43 | 3.78 |
| 15:50 | 2 | 33.4 | 28 | 66,282 | 0.26 | 0 | 0.72 | 14.61 | 62.25 | 0 | 0 | 2.85 | 3.14 |
| 15:49 | 2 | 33.1 | 28 | 66,250 | 0.2 | 0 | 0.76 | 12.56 | 48.09 | 0 | 0 | 3.38 | 3.72 |
| 15:47 | 2 | 32.5 | 29 | 66,190 | 0.1 | 0 | 0.76 | 14.44 | 69.96 | 0 | 0 | 3.34 | 3.67 |
| 15:46 | 2 | 32.2 | 29 | 66,173 | 0.01 | 0 | 0.77 | 14.02 | 68.22 | 0 | 0 | 2.8 | 3.08 |